Time;durP1;ratioP1;P1;durP2;ratioP2;P2;SDS_P1;SDS_P2;PMS_P1;PMS_P2;Temp;Humidity;BMP_temperature;BMP_pressure;BME280_temperature;BME280_humidity;BME280_pressure;Samples;Min_cycle;Max_cycle;Signal;HPM_P1;HPM_P2
2022/12/18 00:01:13;;;;;;;61.50;30.90;;;-1.80;99.90;;;;;;5113854;28;20173;-69
2022/12/18 00:03:41;;;;;;;57.90;32.93;;;-1.80;99.90;;;;;;5113107;28;20641;-67
2022/12/18 00:06:08;;;;;;;55.57;30.07;;;-1.80;99.90;;;;;;5113574;28;20182;-65
2022/12/18 00:08:34;;;;;;;55.30;29.40;;;-1.80;99.90;;;;;;5113932;28;20230;-65
2022/12/18 00:11:10;;;;;;;56.73;29.20;;;-1.80;99.90;;;;;;5113540;28;20676;-65
2022/12/18 00:13:35;;;;;;;60.33;29.87;;;-1.90;99.90;;;;;;5113752;28;20173;-66
2022/12/18 00:16:04;;;;;;;59.03;30.53;;;-1.90;99.90;;;;;;5113677;28;20180;-64
2022/12/18 00:18:30;;;;;;;54.27;30.23;;;-1.90;99.90;;;;;;5113635;28;20174;-63
2022/12/18 00:21:03;;;;;;;56.27;30.27;;;-1.80;99.90;;;;;;5113493;28;20182;-66
2022/12/18 00:23:31;;;;;;;61.50;30.63;;;-1.80;99.90;;;;;;5113539;28;20630;-68
2022/12/18 00:26:00;;;;;;;55.07;30.33;;;-1.70;99.90;;;;;;5113328;28;20209;-68
2022/12/18 00:28:26;;;;;;;57.73;30.30;;;-1.50;99.90;;;;;;5112340;28;20185;-69
2022/12/18 00:31:03;;;;;;;55.50;28.80;;;-1.70;99.90;;;;;;5112283;28;20196;-69
2022/12/18 00:33:29;;;;;;;53.53;28.40;;;-1.80;99.90;;;;;;5113465;28;20181;-66
2022/12/18 00:36:04;;;;;;;57.63;29.10;;;-1.80;99.90;;;;;;5113273;28;20535;-68
2022/12/18 00:38:30;;;;;;;56.60;29.93;;;-1.80;99.90;;;;;;5113527;28;20248;-68
2022/12/18 00:40:55;;;;;;;55.93;28.90;;;-1.90;99.90;;;;;;5113510;28;20641;-68
2022/12/18 00:43:21;;;;;;;54.17;28.57;;;-2.00;99.90;;;;;;5113832;28;20535;-66
2022/12/18 00:45:46;;;;;;;56.83;29.43;;;-2.00;99.90;;;;;;5113277;28;20678;-65
2022/12/18 00:48:12;;;;;;;54.13;29.50;;;-2.10;99.90;;;;;;5113249;28;20188;-65
2022/12/18 00:50:38;;;;;;;57.10;30.77;;;-1.90;99.90;;;;;;5113163;28;20174;-64
2022/12/18 00:53:04;;;;;;;57.27;30.20;;;-1.80;99.90;;;;;;5113399;28;20182;-64
2022/12/18 00:55:30;;;;;;;54.90;30.27;;;-1.70;99.90;;;;;;5113250;28;20188;-65
2022/12/18 00:57:56;;;;;;;54.47;30.30;;;-1.60;99.90;;;;;;5113468;28;20254;-64
2022/12/18 01:00:22;;;;;;;55.63;30.10;;;-1.50;99.90;;;;;;5112805;28;20654;-69
2022/12/18 01:02:47;;;;;;;55.83;29.80;;;-1.50;99.90;;;;;;5111781;28;20212;-68
2022/12/18 01:05:14;;;;;;;52.37;29.13;;;-1.50;99.90;;;;;;5113012;28;20237;-68
2022/12/18 01:07:40;;;;;;;57.40;29.97;;;-1.70;99.90;;;;;;5113234;28;20170;-65
2022/12/18 01:10:08;;;;;;;56.47;29.93;;;-2.00;99.90;;;;;;5113174;28;20249;-67
2022/12/18 01:12:34;;;;;;;51.93;29.50;;;-2.10;99.90;;;;;;5111552;28;20186;-68
2022/12/18 01:14:59;;;;;;;61.10;31.60;;;-2.20;99.90;;;;;;5115499;28;20178;-69
2022/12/18 01:17:25;;;;;;;56.80;29.10;;;-2.30;99.90;;;;;;5115495;28;20658;-68
2022/12/18 01:19:50;;;;;;;55.83;30.13;;;-2.30;99.90;;;;;;5115728;28;20189;-70
2022/12/18 01:22:16;;;;;;;56.50;29.00;;;-2.40;99.90;;;;;;5116732;28;20363;-68
2022/12/18 01:24:42;;;;;;;57.07;30.07;;;-2.30;99.90;;;;;;5115723;28;20205;-69
2022/12/18 01:27:07;;;;;;;54.73;30.53;;;-2.50;99.90;;;;;;5115633;28;20184;-69
2022/12/18 01:29:33;;;;;;;53.50;27.90;;;-2.50;99.90;;;;;;5115332;28;20256;-69
2022/12/18 01:31:59;;;;;;;53.63;29.03;;;-2.50;99.90;;;;;;5115171;28;20272;-68
2022/12/18 01:34:24;;;;;;;52.20;28.93;;;-2.50;99.90;;;;;;5116916;28;20182;-67
2022/12/18 01:36:52;;;;;;;53.20;27.23;;;-2.40;99.90;;;;;;5115259;28;20546;-69
2022/12/18 01:39:18;;;;;;;50.43;26.97;;;-2.30;99.90;;;;;;5116412;28;20642;-67
2022/12/18 01:42:03;;;;;;;49.37;27.33;;;-2.40;99.90;;;;;;5116422;28;20196;-68
2022/12/18 01:44:56;;;;;;;51.70;28.23;;;-2.50;99.90;;;;;;5116143;28;20674;-68
2022/12/18 01:47:27;;;;;;;52.57;28.70;;;-2.40;99.90;;;;;;5116415;28;20173;-69
2022/12/18 01:49:55;;;;;;;56.23;29.93;;;-2.30;99.90;;;;;;5116228;28;20214;-68
2022/12/18 01:52:22;;;;;;;57.97;29.27;;;-2.30;99.90;;;;;;5115755;28;20649;-68
2022/12/18 01:54:50;;;;;;;50.80;28.97;;;-2.30;99.90;;;;;;5115983;28;20271;-68
2022/12/18 01:57:16;;;;;;;51.80;27.80;;;-2.30;99.90;;;;;;5114953;28;20181;-68
2022/12/18 01:59:47;;;;;;;55.97;29.13;;;-2.30;99.90;;;;;;5116430;28;20170;-67
2022/12/18 02:02:14;;;;;;;53.83;29.73;;;-2.40;99.90;;;;;;5116214;28;20196;-67
2022/12/18 02:04:40;;;;;;;54.60;29.53;;;-2.30;99.90;;;;;;5115854;28;20208;-66
2022/12/18 02:07:32;;;;;;;55.80;28.27;;;-2.40;99.90;;;;;;5115964;28;20182;-66
2022/12/18 02:10:15;;;;;;;55.80;29.40;;;-2.30;99.90;;;;;;5116125;28;20226;-68
2022/12/18 02:13:06;;;;;;;52.70;28.23;;;-2.30;99.90;;;;;;5115563;28;20172;-68
2022/12/18 02:15:41;;;;;;;56.30;29.60;;;-2.40;99.90;;;;;;5115725;28;20180;-68
2022/12/18 02:18:18;;;;;;;52.80;29.90;;;-2.30;99.90;;;;;;5115846;27;20169;-66
2022/12/18 02:20:49;;;;;;;56.80;29.90;;;-2.40;99.90;;;;;;5115774;28;20645;-67
2022/12/18 02:23:36;;;;;;;59.00;29.23;;;-2.40;99.90;;;;;;5115504;27;20211;-67
2022/12/18 02:26:05;;;;;;;51.80;28.40;;;-2.40;99.90;;;;;;5114641;28;20288;-68
2022/12/18 02:28:35;;;;;;;50.33;27.23;;;-2.30;99.90;;;;;;5114302;28;20631;-67
2022/12/18 02:31:06;;;;;;;52.77;28.37;;;-2.30;99.90;;;;;;5115531;28;20581;-66
2022/12/18 02:33:34;;;;;;;52.13;28.57;;;-2.30;99.90;;;;;;5115868;28;20214;-66
2022/12/18 02:36:01;;;;;;;51.23;29.10;;;-2.30;99.90;;;;;;5115567;28;20265;-68
2022/12/18 02:38:31;;;;;;;53.27;28.87;;;-2.20;99.90;;;;;;5115193;28;20174;-68
2022/12/18 02:40:57;;;;;;;51.70;28.40;;;-2.30;99.90;;;;;;5114896;27;20201;-66
2022/12/18 02:43:23;;;;;;;53.80;28.47;;;-2.30;99.90;;;;;;5115119;28;20180;-67
2022/12/18 02:45:58;;;;;;;50.10;26.23;;;-2.40;99.90;;;;;;5115196;28;20670;-68
2022/12/18 02:48:29;;;;;;;48.43;27.03;;;-2.50;99.90;;;;;;5115120;28;20169;-67
2022/12/18 02:51:19;;;;;;;47.40;26.40;;;-2.50;99.90;;;;;;5115036;28;20170;-65
2022/12/18 02:53:58;;;;;;;47.13;26.80;;;-2.60;99.90;;;;;;5115164;28;20227;-68
2022/12/18 02:56:30;;;;;;;47.57;26.20;;;-2.50;99.90;;;;;;5113588;28;20166;-67
2022/12/18 02:59:13;;;;;;;49.57;26.83;;;-2.60;99.90;;;;;;5114911;28;20176;-67
2022/12/18 03:01:48;;;;;;;48.37;25.83;;;-2.50;99.90;;;;;;5114766;28;20208;-68
2022/12/18 03:04:26;;;;;;;54.20;26.73;;;-2.50;99.90;;;;;;5114836;28;20192;-67
2022/12/18 03:06:57;;;;;;;42.53;25.77;;;-2.60;99.90;;;;;;5114823;28;20689;-66
2022/12/18 03:09:37;;;;;;;52.37;26.27;;;-2.80;99.90;;;;;;5114728;28;20645;-67
2022/12/18 03:12:24;;;;;;;46.43;24.47;;;-2.90;99.90;;;;;;5114910;28;20174;-67
2022/12/18 03:15:15;;;;;;;44.83;25.37;;;-2.80;99.90;;;;;;5113443;28;20186;-68
2022/12/18 03:17:46;;;;;;;45.10;24.57;;;-2.60;99.90;;;;;;5133679;27;20178;-65
2022/12/18 03:20:16;;;;;;;46.00;24.87;;;-2.60;99.90;;;;;;5114502;28;20580;-64
2022/12/18 03:22:44;;;;;;;42.83;25.13;;;-2.60;99.90;;;;;;5114377;28;20165;-64
2022/12/18 03:25:12;;;;;;;45.23;25.10;;;-2.30;99.90;;;;;;5114396;28;20681;-65
2022/12/18 03:27:45;;;;;;;42.83;24.47;;;-2.20;99.90;;;;;;5114368;28;20257;-66
2022/12/18 03:30:13;;;;;;;42.33;24.43;;;-2.20;99.90;;;;;;5114286;28;20162;-67
2022/12/18 03:33:02;;;;;;;44.60;23.67;;;-2.30;99.90;;;;;;5114109;28;20264;-68
2022/12/18 03:35:33;;;;;;;46.60;25.27;;;-2.20;99.90;;;;;;5114250;28;20178;-66
2022/12/18 03:37:59;;;;;;;44.17;24.80;;;-2.50;99.90;;;;;;5113257;28;20178;-65
2022/12/18 03:40:33;;;;;;;42.47;24.53;;;-2.50;99.90;;;;;;5113998;28;20174;-68
2022/12/18 03:43:37;;;;;;;38.43;23.43;;;-2.30;99.90;;;;;;5114156;28;20283;-67
2022/12/18 03:46:10;;;;;;;40.80;24.47;;;-2.30;99.90;;;;;;5113493;27;20252;-69
2022/12/18 03:48:49;;;;;;;46.00;24.70;;;-2.40;99.90;;;;;;5114333;28;20211;-68
2022/12/18 03:51:31;;;;;;;40.57;23.87;;;-2.50;99.90;;;;;;5113769;28;20641;-66
2022/12/18 03:54:03;;;;;;;45.80;24.40;;;-2.60;99.90;;;;;;5113821;28;20173;-66
2022/12/18 03:56:34;;;;;;;40.97;22.53;;;-2.70;99.90;;;;;;5113957;28;20230;-67
2022/12/18 03:59:02;;;;;;;42.00;24.00;;;-2.70;99.90;;;;;;5113967;28;20261;-66
2022/12/18 04:01:33;;;;;;;42.43;22.67;;;-2.60;99.90;;;;;;5113790;28;20162;-68
2022/12/18 04:04:01;;;;;;;40.23;22.73;;;-2.50;99.90;;;;;;5113633;28;20740;-66
2022/12/18 04:06:29;;;;;;;35.90;21.73;;;-2.50;99.90;;;;;;5114097;28;20188;-66
2022/12/18 04:08:56;;;;;;;42.60;22.57;;;-2.80;99.90;;;;;;5112561;28;20551;-66
2022/12/18 04:11:21;;;;;;;38.17;21.87;;;-2.70;99.90;;;;;;5113851;28;20559;-66
2022/12/18 04:13:47;;;;;;;38.67;21.13;;;-2.70;99.90;;;;;;5112366;28;20177;-66
2022/12/18 04:16:13;;;;;;;39.27;21.37;;;-2.70;99.90;;;;;;5113574;28;20174;-67
2022/12/18 04:18:38;;;;;;;38.37;21.73;;;-2.50;99.90;;;;;;5113458;28;20622;-66
2022/12/18 04:21:04;;;;;;;35.90;19.97;;;-2.60;99.90;;;;;;5114041;28;20285;-66
2022/12/18 04:23:30;;;;;;;37.83;21.03;;;-2.60;99.90;;;;;;5113505;28;20698;-66
2022/12/18 04:25:55;;;;;;;37.17;20.97;;;-2.60;99.90;;;;;;5112475;28;20244;-68
2022/12/18 04:28:21;;;;;;;36.80;21.40;;;-2.50;99.90;;;;;;5112288;28;20504;-68
2022/12/18 04:30:48;;;;;;;38.90;21.00;;;-2.50;99.90;;;;;;5112301;28;20178;-68
2022/12/18 04:33:17;;;;;;;37.33;21.93;;;-2.50;99.90;;;;;;5113318;28;20230;-69
2022/12/18 04:35:43;;;;;;;38.27;20.97;;;-2.60;99.90;;;;;;5112491;28;20169;-69
2022/12/18 04:38:12;;;;;;;35.40;20.43;;;-2.60;99.90;;;;;;5112259;28;20178;-69
2022/12/18 04:40:38;;;;;;;36.67;20.23;;;-2.70;99.90;;;;;;5113202;28;20169;-69
2022/12/18 04:43:05;;;;;;;35.73;20.57;;;-2.80;99.90;;;;;;5113365;28;20174;-68
2022/12/18 04:45:32;;;;;;;33.70;20.03;;;-2.80;99.90;;;;;;5113166;28;20251;-67
2022/12/18 04:47:58;;;;;;;39.30;20.70;;;-2.80;99.90;;;;;;5113101;28;20230;-66
2022/12/18 04:50:24;;;;;;;35.90;21.50;;;-2.80;99.90;;;;;;5116956;28;20279;-66
2022/12/18 04:52:50;;;;;;;35.10;21.20;;;-2.80;99.90;;;;;;5117373;28;20625;-69
2022/12/18 04:55:15;;;;;;;37.90;22.83;;;-2.80;99.90;;;;;;5116176;28;20174;-68
2022/12/18 04:57:41;;;;;;;35.10;20.13;;;-2.80;99.90;;;;;;5117156;28;20178;-68
2022/12/18 05:00:07;;;;;;;35.63;20.80;;;-2.90;99.90;;;;;;5117389;28;20252;-68
2022/12/18 05:02:33;;;;;;;36.80;21.33;;;-3.00;99.90;;;;;;5115837;28;20520;-68
2022/12/18 05:04:59;;;;;;;35.00;20.50;;;-3.10;99.90;;;;;;5117143;28;20208;-70
2022/12/18 05:07:24;;;;;;;37.77;21.67;;;-3.10;99.90;;;;;;5117144;28;20205;-68
2022/12/18 05:09:53;;;;;;;35.07;21.40;;;-3.20;99.90;;;;;;5117082;28;20178;-68
2022/12/18 05:12:18;;;;;;;34.90;21.23;;;-3.20;99.90;;;;;;5116999;28;20178;-68
2022/12/18 05:14:44;;;;;;;36.87;22.30;;;-3.30;99.90;;;;;;5116742;28;20201;-67
2022/12/18 05:17:10;;;;;;;38.40;21.83;;;-3.30;99.90;;;;;;5116696;28;20554;-67
2022/12/18 05:19:35;;;;;;;37.17;21.90;;;-3.10;99.90;;;;;;5117183;28;20643;-66
2022/12/18 05:22:01;;;;;;;36.23;20.43;;;-3.10;99.90;;;;;;5116728;28;20703;-67
2022/12/18 05:24:27;;;;;;;32.87;20.00;;;-3.10;99.90;;;;;;5116685;28;20205;-68
2022/12/18 05:26:53;;;;;;;37.93;20.27;;;-2.90;99.90;;;;;;5116667;28;20181;-68
2022/12/18 05:29:18;;;;;;;37.03;20.40;;;-2.90;99.90;;;;;;5116530;28;20181;-67
2022/12/18 05:31:44;;;;;;;33.77;20.17;;;-3.00;99.90;;;;;;5116353;28;20177;-66
2022/12/18 05:34:09;;;;;;;32.47;19.60;;;-3.00;99.90;;;;;;5116645;28;20174;-65
2022/12/18 05:36:35;;;;;;;33.20;19.77;;;-2.90;99.90;;;;;;5116588;28;20180;-65
2022/12/18 05:39:01;;;;;;;34.43;19.60;;;-3.00;99.90;;;;;;5115306;28;20557;-66
2022/12/18 05:41:27;;;;;;;32.80;18.73;;;-2.90;99.90;;;;;;5116097;28;20669;-66
2022/12/18 05:43:52;;;;;;;30.10;17.53;;;-2.90;99.90;;;;;;5116197;28;20512;-66
2022/12/18 05:46:18;;;;;;;34.77;17.83;;;-2.70;99.90;;;;;;5116059;28;20268;-66
2022/12/18 05:48:45;;;;;;;34.80;19.17;;;-2.70;99.90;;;;;;5116251;28;20174;-66
2022/12/18 05:51:14;;;;;;;31.60;18.40;;;-2.60;99.90;;;;;;5116314;28;20253;-66
2022/12/18 05:53:40;;;;;;;32.10;18.47;;;-2.70;99.90;;;;;;5116168;28;20166;-65
2022/12/18 05:56:08;;;;;;;34.50;18.93;;;-2.60;99.90;;;;;;5116164;28;20227;-65
2022/12/18 05:58:34;;;;;;;31.60;18.10;;;-2.50;99.90;;;;;;5115793;28;20170;-65
2022/12/18 06:01:08;;;;;;;31.60;18.93;;;-2.50;99.90;;;;;;5115025;28;20231;-68
2022/12/18 06:03:34;;;;;;;32.93;18.97;;;-2.40;99.90;;;;;;5116023;28;20507;-69
2022/12/18 06:05:59;;;;;;;29.77;18.13;;;-2.50;99.90;;;;;;5115905;28;20212;-69
2022/12/18 06:08:25;;;;;;;28.97;18.07;;;-2.50;99.90;;;;;;5115899;28;20631;-68
2022/12/18 06:10:54;;;;;;;30.93;18.30;;;-2.70;99.90;;;;;;5115663;28;20232;-69
2022/12/18 06:13:21;;;;;;;30.70;18.03;;;-2.90;99.90;;;;;;5115613;28;20177;-69
2022/12/18 06:15:46;;;;;;;31.97;18.57;;;-3.00;99.90;;;;;;5115720;28;20181;-69
2022/12/18 06:18:12;;;;;;;31.40;18.97;;;-3.20;99.90;;;;;;5114396;28;20551;-69
2022/12/18 06:20:39;;;;;;;29.77;17.73;;;-3.20;99.90;;;;;;5115615;28;20623;-68
2022/12/18 06:23:06;;;;;;;29.73;18.17;;;-3.20;99.90;;;;;;5114295;28;20173;-68
2022/12/18 06:25:32;;;;;;;30.67;18.40;;;-3.30;99.90;;;;;;5115426;28;20274;-69
2022/12/18 06:27:58;;;;;;;30.50;17.90;;;-3.40;99.90;;;;;;5115352;28;20174;-69
2022/12/18 06:30:24;;;;;;;30.37;18.07;;;-3.40;99.90;;;;;;5115363;28;20181;-69
2022/12/18 06:32:50;;;;;;;30.77;18.20;;;-3.40;99.90;;;;;;5115450;28;20653;-68
2022/12/18 06:35:16;;;;;;;29.67;17.10;;;-3.30;99.90;;;;;;5115304;28;20181;-68
2022/12/18 06:37:42;;;;;;;30.90;17.90;;;-3.30;99.90;;;;;;5115319;28;20174;-69
2022/12/18 06:40:08;;;;;;;29.47;18.30;;;-3.40;99.90;;;;;;5115123;28;20173;-69
2022/12/18 06:42:33;;;;;;;29.40;17.70;;;-3.40;99.90;;;;;;5114925;28;20246;-69
2022/12/18 06:44:59;;;;;;;28.13;17.97;;;-3.40;99.90;;;;;;5115260;28;20209;-69
2022/12/18 06:47:25;;;;;;;30.10;18.33;;;-3.40;99.90;;;;;;5115197;28;20249;-67
2022/12/18 06:49:50;;;;;;;38.27;25.23;;;-3.40;99.90;;;;;;5115074;28;20203;-67
2022/12/18 06:52:16;;;;;;;30.17;19.00;;;-3.30;99.90;;;;;;5114928;28;20201;-66
2022/12/18 06:54:41;;;;;;;29.43;18.20;;;-3.20;99.90;;;;;;5114935;28;20204;-66
2022/12/18 06:57:07;;;;;;;32.53;18.60;;;-3.20;99.90;;;;;;5114840;28;20711;-66
2022/12/18 06:59:33;;;;;;;27.80;17.53;;;-3.10;99.90;;;;;;5115011;28;20204;-66
2022/12/18 07:01:58;;;;;;;33.27;18.80;;;-3.00;99.90;;;;;;5114916;28;20178;-68
2022/12/18 07:04:29;;;;;;;30.93;18.03;;;-3.10;99.90;;;;;;5114507;28;20626;-68
2022/12/18 07:06:55;;;;;;;29.60;18.33;;;-3.10;99.90;;;;;;5114326;28;20196;-68
2022/12/18 07:09:20;;;;;;;30.10;18.77;;;-3.10;99.90;;;;;;5114567;28;20178;-67
2022/12/18 07:11:46;;;;;;;30.40;17.73;;;-3.20;99.90;;;;;;5113593;28;20195;-69
2022/12/18 07:14:14;;;;;;;33.70;17.83;;;-3.20;99.90;;;;;;5114450;28;20181;-69
2022/12/18 07:16:40;;;;;;;29.33;17.23;;;-3.20;99.90;;;;;;5114088;28;20580;-67
2022/12/18 07:19:06;;;;;;;31.83;17.50;;;-3.40;99.90;;;;;;5113865;28;20344;-68
2022/12/18 07:21:32;;;;;;;26.90;17.17;;;-3.40;99.90;;;;;;5113171;28;20201;-69
2022/12/18 07:23:57;;;;;;;28.67;16.83;;;-3.50;99.90;;;;;;5114121;28;20174;-68
2022/12/18 07:26:23;;;;;;;27.70;16.63;;;-3.40;99.90;;;;;;5111139;28;20783;-69
2022/12/18 07:28:49;;;;;;;35.60;20.70;;;-3.40;99.90;;;;;;5113156;28;20174;-68
2022/12/18 07:31:21;;;;;;;28.23;17.83;;;-3.30;99.90;;;;;;5114176;28;20261;-69
2022/12/18 07:33:46;;;;;;;31.37;17.83;;;-3.30;99.90;;;;;;5112937;28;20170;-69
2022/12/18 07:36:13;;;;;;;72.87;52.43;;;-3.30;99.90;;;;;;5113992;28;20180;-69
2022/12/18 07:38:39;;;;;;;39.37;27.50;;;-3.30;99.90;;;;;;5113833;28;20193;-68
2022/12/18 07:41:11;;;;;;;32.47;19.73;;;-3.30;99.90;;;;;;5113378;28;20265;-68
2022/12/18 07:43:38;;;;;;;29.47;17.77;;;-3.40;99.90;;;;;;5114045;28;20201;-69
2022/12/18 07:46:04;;;;;;;25.77;15.37;;;-3.30;99.90;;;;;;5113662;28;20566;-69
2022/12/18 07:48:30;;;;;;;28.67;16.00;;;-3.40;99.90;;;;;;5112927;28;20182;-69
2022/12/18 07:51:04;;;;;;;26.10;16.33;;;-3.30;99.90;;;;;;5113551;28;20231;-68
2022/12/18 07:53:29;;;;;;;27.53;16.63;;;-3.40;99.90;;;;;;5112168;28;20173;-68
2022/12/18 07:55:57;;;;;;;27.00;16.33;;;-3.40;99.90;;;;;;5113354;28;20186;-68
2022/12/18 07:58:23;;;;;;;26.33;16.07;;;-3.30;99.90;;;;;;5113760;28;20572;-69
2022/12/18 08:00:48;;;;;;;24.37;15.30;;;-3.40;99.90;;;;;;5113697;28;20173;-69
2022/12/18 08:03:14;;;;;;;26.93;15.97;;;-3.40;99.90;;;;;;5113947;28;20652;-69
2022/12/18 08:05:39;;;;;;;25.03;14.90;;;-3.30;99.90;;;;;;5112298;28;20208;-67
2022/12/18 08:08:05;;;;;;;24.33;15.40;;;-3.20;99.90;;;;;;5112326;28;20261;-67
2022/12/18 08:10:31;;;;;;;25.17;15.67;;;-3.30;99.90;;;;;;5113500;28;20186;-68
2022/12/18 08:12:56;;;;;;;27.13;16.30;;;-3.20;99.90;;;;;;5113677;28;20173;-69
2022/12/18 08:15:22;;;;;;;25.20;15.03;;;-3.20;99.90;;;;;;5112475;28;20173;-69
2022/12/18 08:17:48;;;;;;;25.80;15.83;;;-3.30;99.90;;;;;;5112323;28;20193;-69
2022/12/18 08:20:18;;;;;;;26.17;16.03;;;-3.20;99.90;;;;;;5113531;28;20178;-69
2022/12/18 08:22:44;;;;;;;29.23;15.43;;;-3.10;99.90;;;;;;5113450;28;20178;-70
2022/12/18 08:25:10;;;;;;;24.77;14.93;;;-3.00;99.90;;;;;;5115374;28;20201;-70
2022/12/18 08:27:36;;;;;;;24.47;15.43;;;-3.00;99.90;;;;;;5116284;28;20173;-66
2022/12/18 08:30:01;;;;;;;26.87;16.03;;;-3.00;99.90;;;;;;5117615;28;20180;-66
2022/12/18 08:32:28;;;;;;;26.40;16.50;;;-2.90;99.90;;;;;;5117600;28;20177;-67
2022/12/18 08:34:56;;;;;;;22.73;14.93;;;-2.90;99.90;;;;;;5117929;28;20185;-66
2022/12/18 08:37:22;;;;;;;24.07;14.83;;;-2.80;99.90;;;;;;5117514;28;20571;-66
2022/12/18 08:39:47;;;;;;;26.37;15.07;;;-2.80;99.90;;;;;;5117167;28;20197;-66
2022/12/18 08:44:57;;;;;;;23.73;14.03;;;-2.60;99.90;;;;;;5117465;28;20263;-67
2022/12/18 08:47:23;;;;;;;23.13;15.20;;;-2.60;99.90;;;;;;5116129;28;20189;-67
2022/12/18 08:49:48;;;;;;;23.43;14.70;;;-2.50;99.90;;;;;;5116953;28;20182;-66
2022/12/18 08:52:14;;;;;;;24.93;14.20;;;-2.40;99.90;;;;;;5117757;28;20176;-66
2022/12/18 08:54:39;;;;;;;24.90;14.73;;;-2.30;99.90;;;;;;5116680;28;20220;-66
2022/12/18 08:57:05;;;;;;;23.97;15.00;;;-2.30;99.90;;;;;;5117059;28;20289;-66
2022/12/18 08:59:31;;;;;;;24.93;15.23;;;-2.20;99.90;;;;;;5116781;28;20590;-66
2022/12/18 09:01:56;;;;;;;23.07;13.77;;;-2.20;99.90;;;;;;5116949;28;20314;-66
2022/12/18 09:04:22;;;;;;;21.47;14.10;;;-2.20;99.90;;;;;;5116803;28;20220;-66
2022/12/18 09:06:48;;;;;;;22.37;13.83;;;-2.10;99.90;;;;;;5117075;28;20538;-66
2022/12/18 09:09:13;;;;;;;22.03;14.33;;;-2.00;99.90;;;;;;5115874;28;20181;-66
2022/12/18 09:11:39;;;;;;;25.03;13.67;;;-2.00;99.90;;;;;;5115744;28;20188;-66
2022/12/18 09:14:05;;;;;;;24.40;14.50;;;-2.00;99.90;;;;;;5116473;28;20639;-66
2022/12/18 09:16:31;;;;;;;25.93;16.03;;;-2.00;99.90;;;;;;5116391;28;20508;-67
2022/12/18 09:19:01;;;;;;;25.07;14.80;;;-2.00;99.90;;;;;;5116603;28;20311;-68
2022/12/18 09:21:32;;;;;;;22.90;14.17;;;-1.90;99.90;;;;;;5117103;28;20666;-66
2022/12/18 09:23:58;;;;;;;19.00;13.63;;;-1.90;99.90;;;;;;5116679;28;20162;-67
2022/12/18 09:26:25;;;;;;;19.17;13.27;;;-1.90;99.90;;;;;;5116797;28;20652;-66
2022/12/18 09:28:51;;;;;;;19.83;13.37;;;-2.00;99.90;;;;;;5116570;28;20280;-69
2022/12/18 09:31:18;;;;;;;18.40;12.87;;;-1.80;99.90;;;;;;5116511;28;20256;-67
2022/12/18 09:33:45;;;;;;;20.07;13.33;;;-1.70;99.90;;;;;;5116723;28;20165;-68
2022/12/18 09:36:13;;;;;;;22.10;12.80;;;-1.60;99.90;;;;;;5116499;28;20643;-67
2022/12/18 09:38:39;;;;;;;21.60;14.03;;;-1.60;99.90;;;;;;5116469;28;20170;-68
2022/12/18 09:41:31;;;;;;;22.87;13.80;;;-1.60;99.90;;;;;;5116401;28;20277;-68
2022/12/18 09:44:05;;;;;;;19.03;12.57;;;-1.50;99.90;;;;;;5116138;28;20185;-62
2022/12/18 09:46:36;;;;;;;20.93;11.93;;;-1.60;99.90;;;;;;5116492;28;20265;-62
2022/12/18 09:49:06;;;;;;;18.33;12.50;;;-1.50;99.90;;;;;;5116026;28;20166;-62
2022/12/18 09:51:46;;;;;;;18.13;11.50;;;-1.40;99.90;;;;;;5116275;28;20194;-60
2022/12/18 09:54:43;;;;;;;17.90;12.03;;;-1.40;99.90;;;;;;5116205;28;20202;-61
2022/12/18 09:57:29;;;;;;;17.87;11.43;;;-1.40;99.90;;;;;;5099626;28;20527;-61
2022/12/18 10:00:01;;;;;;;17.83;11.87;;;-1.30;99.90;;;;;;5116050;28;20538;-61
2022/12/18 10:02:30;;;;;;;17.80;11.57;;;-1.20;99.90;;;;;;5116076;28;20269;-61
2022/12/18 10:05:10;;;;;;;16.43;11.17;;;-1.20;99.90;;;;;;5115746;27;20342;-61
2022/12/18 10:07:57;;;;;;;18.80;12.13;;;-1.20;99.90;;;;;;5116101;28;20181;-61
2022/12/18 10:10:45;;;;;;;16.90;11.10;;;-1.10;99.90;;;;;;5115907;28;20170;-61
2022/12/18 10:13:45;;;;;;;18.40;11.57;;;-1.20;99.90;;;;;;5115731;28;20669;-61
2022/12/18 10:16:27;;;;;;;16.87;11.97;;;-1.20;99.90;;;;;;5115858;28;20170;-61
2022/12/18 10:19:14;;;;;;;17.20;11.43;;;-1.30;99.90;;;;;;5115649;28;20663;-61
2022/12/18 10:21:51;;;;;;;19.67;12.23;;;-1.30;99.90;;;;;;5115520;28;20254;-61
2022/12/18 10:24:22;;;;;;;34.03;19.47;;;-1.10;99.90;;;;;;5115649;28;20177;-61
2022/12/18 10:26:48;;;;;;;26.53;15.70;;;-1.00;99.90;;;;;;5115661;28;20174;-61
2022/12/18 10:29:16;;;;;;;26.80;16.40;;;-1.00;99.90;;;;;;5115583;28;20211;-61
2022/12/18 10:31:42;;;;;;;17.20;13.03;;;-0.90;99.90;;;;;;5115360;28;20189;-61
2022/12/18 10:34:15;;;;;;;19.33;14.13;;;-0.90;99.90;;;;;;5115570;28;20178;-61
2022/12/18 10:36:42;;;;;;;20.63;14.53;;;-0.90;99.90;;;;;;5115591;28;20683;-61
2022/12/18 10:39:19;;;;;;;20.73;13.63;;;-0.90;99.90;;;;;;5115462;28;20170;-61
2022/12/18 10:41:46;;;;;;;18.93;13.17;;;-0.80;99.90;;;;;;5115260;28;20193;-61
2022/12/18 10:44:25;;;;;;;18.57;13.17;;;-0.70;99.90;;;;;;5114904;28;20186;-61
2022/12/18 10:46:57;;;;;;;21.20;13.13;;;-0.60;99.90;;;;;;5114478;28;20672;-61
2022/12/18 10:49:27;;;;;;;18.70;11.87;;;-0.40;99.90;;;;;;5115192;27;20699;-61
2022/12/18 10:52:18;;;;;;;16.50;11.30;;;-0.40;99.90;;;;;;5115056;28;20169;-61
2022/12/18 10:54:52;;;;;;;21.37;13.77;;;-0.40;99.90;;;;;;5114915;28;20177;-61
2022/12/18 10:57:40;;;;;;;17.37;13.00;;;-0.40;99.90;;;;;;5115312;28;20175;-61
2022/12/18 11:00:27;;;;;;;20.67;13.13;;;-0.30;99.90;;;;;;5114930;28;20201;-61
2022/12/18 11:02:53;;;;;;;19.03;12.07;;;-0.20;99.90;;;;;;5114790;28;20172;-61
2022/12/18 11:05:31;;;;;;;17.17;11.97;;;-0.20;99.90;;;;;;5114876;27;20232;-61
2022/12/18 11:07:59;;;;;;;15.40;11.50;;;-0.20;99.90;;;;;;5115199;28;20177;-61
2022/12/18 11:10:34;;;;;;;17.70;12.30;;;-0.10;99.90;;;;;;5114916;28;20180;-61
2022/12/18 11:13:31;;;;;;;17.53;12.07;;;-0.10;99.90;;;;;;5114637;28;20523;-62
2022/12/18 11:15:58;;;;;;;15.83;11.13;;;0.00;99.90;;;;;;5114647;28;20180;-61
2022/12/18 11:18:33;;;;;;;16.43;11.27;;;0.10;99.90;;;;;;5114814;27;20177;-61
2022/12/18 11:21:11;;;;;;;16.47;11.50;;;0.10;99.90;;;;;;5113234;28;20232;-61
2022/12/18 11:23:49;;;;;;;16.87;11.27;;;0.20;99.90;;;;;;5114306;28;20222;-61
2022/12/18 11:26:15;;;;;;;17.03;11.17;;;0.20;99.90;;;;;;5114293;28;20741;-61
2022/12/18 11:29:08;;;;;;;15.13;11.20;;;0.20;99.90;;;;;;5114372;28;20259;-61
2022/12/18 11:31:34;;;;;;;18.20;13.13;;;0.30;99.90;;;;;;5114705;28;20272;-61
2022/12/18 11:34:24;;;;;;;21.67;13.87;;;0.20;99.90;;;;;;5114207;28;20740;-62
2022/12/18 11:36:50;;;;;;;19.93;14.07;;;0.20;99.90;;;;;;5114368;27;20173;-61
2022/12/18 11:39:44;;;;;;;16.37;12.23;;;0.20;99.90;;;;;;5114416;28;20183;-61
2022/12/18 11:42:48;;;;;;;25.97;18.40;;;0.30;99.90;;;;;;5114288;28;20213;-62
2022/12/18 11:45:14;;;;;;;21.07;13.73;;;0.30;99.90;;;;;;5113699;28;20245;-60
2022/12/18 11:47:45;;;;;;;49.47;28.43;;;0.30;99.90;;;;;;5113904;28;20201;-61
2022/12/18 11:50:45;;;;;;;21.07;13.93;;;0.50;99.90;;;;;;5113915;28;20734;-61
2022/12/18 11:53:11;;;;;;;31.87;19.97;;;0.50;99.90;;;;;;5113861;28;20247;-61
2022/12/18 11:55:43;;;;;;;28.67;18.90;;;0.50;99.90;;;;;;5114043;28;20650;-60
2022/12/18 11:58:14;;;;;;;35.10;22.03;;;0.50;99.90;;;;;;5113294;28;20652;-60
2022/12/18 12:00:57;;;;;;;23.27;15.87;;;0.50;99.90;;;;;;5113773;28;20502;-60
2022/12/18 12:03:41;;;;;;;17.60;12.77;;;0.50;99.90;;;;;;5113803;28;20170;-60
2022/12/18 12:06:27;;;;;;;18.87;12.07;;;0.40;99.90;;;;;;5113852;28;20212;-61
2022/12/18 12:08:52;;;;;;;16.37;11.53;;;0.60;99.90;;;;;;5113278;28;20241;-60
2022/12/18 12:11:28;;;;;;;22.37;14.97;;;0.70;99.90;;;;;;5113616;28;20185;-61
2022/12/18 12:14:13;;;;;;;26.87;17.90;;;0.80;99.90;;;;;;5113546;28;20173;-61
2022/12/18 12:17:17;;;;;;;22.53;15.30;;;0.70;99.90;;;;;;5071748;28;20200;-61
2022/12/18 12:20:09;;;;;;;16.20;11.90;;;0.80;99.90;;;;;;5089051;28;20575;-61
2022/12/18 12:22:59;;;;;;;17.27;12.20;;;0.80;99.90;;;;;;5113729;28;20176;-61
2022/12/18 12:25:46;;;;;;;20.87;14.33;;;0.80;99.90;;;;;;5113518;28;20204;-61
2022/12/18 12:28:15;;;;;;;17.90;13.47;;;0.90;99.90;;;;;;5113658;28;20179;-61
2022/12/18 12:30:47;;;;;;;20.80;14.53;;;0.90;99.90;;;;;;5113385;28;20661;-61
2022/12/18 12:33:33;;;;;;;19.13;12.87;;;0.80;99.90;;;;;;5113854;28;20255;-61
2022/12/18 12:36:33;;;;;;;16.47;12.43;;;0.90;99.90;;;;;;5113403;28;20168;-61
2022/12/18 12:39:06;;;;;;;17.50;12.93;;;0.80;99.90;;;;;;5109175;28;20550;-61
2022/12/18 12:44:41;;;;;;;18.77;13.30;;;0.80;99.90;;;;;;5113473;28;20265;-62
2022/12/18 12:47:20;;;;;;;14.83;10.97;;;0.70;99.90;;;;;;5113162;28;20184;-61
2022/12/18 12:49:47;;;;;;;17.67;12.83;;;0.90;99.90;;;;;;5113494;28;20177;-62
2022/12/18 12:52:26;;;;;;;16.70;11.90;;;0.90;99.90;;;;;;5113325;28;20180;-61